• Join FlightAware (Why Join?)
  • Login
  • US Flag 
08:03AM EDT


 

Airport Tracker/Info


-or-


 

Live Flight TrackerFlight Track Log ✈ AMF1324 ✈ 20-Sep-2013 ✈ KBUF - KBGM

Flight Track Log - Related Links

Times and Time Zones

All times are in EDT time to prevent confusion due to time zone crossing. See the AMF1324 flight status page for this flight to view local times or setup timezone preferences in your user account.

Time Position Orientation Groundspeed Altitude Reporting Facility
EDT Latitude Longitude Course Direction KTS MPH feet Rate Location/Type
06:44AM 42.9333 -78.7500 180° South 161 185 1,500  Level Buffalo TRACON
06:44AM 42.9167 -78.7500 180° South 169 194 2,000 1,560 Climbing Buffalo TRACON
06:45AM 42.9000 -78.6833 109° East 211 243 3,700 1,740 Climbing Buffalo TRACON
06:47AM 42.8978 -78.5889 92° East 198 228 6,100 1,560 Climbing Cleveland Center
06:48AM 42.8933 -78.5150 95° East 202 232 7,400 1,260 Climbing Cleveland Center
06:49AM 42.8869 -78.4347 96° East 205 236 8,800 1,260 Climbing Cleveland Center
06:50AM 42.8794 -78.3517 97° East 211 243 10,100 1,260 Climbing Cleveland Center
06:51AM 42.8731 -78.2692 96° East 216 249 11,400 1,140 Climbing Cleveland Center
06:52AM 42.8667 -78.1867 96° East 221 254 12,500 720 Climbing Cleveland Center
06:53AM 42.8606 -78.0986 95° East 233 268 12,900 240 Climbing Cleveland Center
06:54AM 42.8517 -78.0033 97° East 252 290 13,000  Climbing Cleveland Center
06:55AM 42.8425 -77.9053 97° East 258 297 13,000  Level Cleveland Center
06:56AM 42.8369 -77.8086 94° East 257 296 13,000 -60 Level Cleveland Center
06:57AM 42.8303 -77.7100 95° East 259 298 12,900  Descending Cleveland Center
06:58AM 42.7986 -77.6244 117° Southeast 250 288 13,000 -120 Climbing Cleveland Center
06:59AM 42.7681 -77.5367 115° Southeast 253 291 12,700 -480 Descending Cleveland Center
07:00AM 42.7306 -77.4475 120° Southeast 265 305 12,100 -720 Descending Cleveland Center
07:01AM 42.6931 -77.3553 119° Southeast 274 315 11,300 -540 Descending Cleveland Center
07:02AM 42.6475 -77.2464 120° Southeast 277 319 11,000 -180 Descending Cleveland Center
07:03AM 42.6106 -77.1606 120° Southeast 265 305 11,000  Level Cleveland Center
07:04AM 42.5736 -77.0786 121° Southeast 257 296 11,000  Level Cleveland Center
07:05AM 42.5350 -76.9997 124° Southeast 252 290 11,000  Level Cleveland Center
07:06AM 42.4964 -76.9200 123° Southeast 252 290 11,000  Level Cleveland Center
07:07AM 42.4556 -76.8419 125° Southeast 253 291 11,000  Level Cleveland Center
07:08AM 42.4150 -76.7656 126° Southeast 252 290 11,000  Level Cleveland Center
07:09AM 42.3764 -76.6856 123° Southeast 254 292 11,000 -660 Level Cleveland Center
07:10AM 42.3358 -76.6003 123° Southeast 262 302 9,700 -1,320 Descending Cleveland Center
07:11AM 42.2889 -76.4861 119° Southeast 288 331 8,400 -1,380 Descending Cleveland Center
07:12AM 42.2683 -76.3667 103° East 275 316 6,800 -1,500 Descending New York Center
07:13AM 42.2692 -76.2603 89° East 275 316 5,200 -1,500 Descending New York Center
07:14AM 42.2778 -76.1603 83° East 275 316 3,800 -1,020 Descending New York Center
07:15AM 42.2792 -76.0847 89° East 270 311 3,200 -480 Descending New York Center
07:16AM 42.2531 -76.0181 118° Southeast 222 255 2,900 -540 Descending New York Center
07:17AM 42.2264 -75.9572 121° Southeast 200 230 2,200 -720 Descending New York Center